Weather observations for the past three days for
Kearney, Kearney Municipal Airport
Metric (Imperial)
Date Time (cdt) Wind (kph) Vis. (km) Weather Sky Cond. Temperature (ºC) Relative Humidity Wind Chill (°C) Heat Index (°C) Pressure Precipitation (cm)
Air Dwpt 6 hour altimeter (cm) sea level (mb) 1 hr 3 hr 6 hr
Max. Min.
02 09:56 S 17 16.09 Fair CLR 26.7 17.8 58% 28 76 1011.1
02 08:56 S 11 16.09 Fair CLR 23.3 17.8 71% 76.02 1011.6
02 07:56 S 9 16.09 Fair CLR 20.6 17.2 81% 76.02 1011.4
02 06:56 S 13 16.09 Fair CLR 19.4 16.7 25 19.4 84% 76 1011.2
02 05:56 SW 11 16.09 Fair CLR 22.2 16.1 68% 75.97 1010.5
02 04:56 S 13 16.09 Fair CLR 21.1 16.7 76% 75.97 1010.7
02 03:56 S 15 16.09 Fair CLR 22.8 16.1 66% 75.97 1010.6
02 02:56 S 13 16.09 A Few Clouds FEW120 23.3 16.1 64% 75.92 1009.9
02 01:56 S 20 16.09 Fair CLR 24.4 16.1 60% 26 75.95 1009.9
02 00:56 S 19 16.09 Fair CLR 24.4 16.1 32.2 23.9 60% 26 75.95 0.0
01 23:56 S 15 16.09 Fair CLR 23.9 16.7 64% 25 75.95 1010.3
01 22:56 S 17 16.09 Fair CLR 25.6 17.2 60% 27 75.97 1010.4
01 21:56 S 15 16.09 Fair CLR 25.6 21.1 76% 27 75.92 1010.1
01 20:56 SE 9 16.09 Fair CLR 27.2 22.8 77% 30 75.9 1009.8
01 19:56 E 9 16.09 Fair CLR 30 22.8 65% 34 75.9 1009.6
01 18:56 SE 6 16.09 Fair CLR 31.7 22.2 33.9 31.7 57% 36 75.9 1009.7
01 17:56 S 11 16.09 Fair CLR 33.3 21.1 49% 37 75.92 1009.8
01 16:56 S 11 16.09 Fair CLR 32.8 22.8 56% 38 75.97 1010.5
01 15:56 S 13 16.09 Fair CLR 32.8 22.2 54% 37 76.02 1011.1
01 14:56 SE 13 16.09 Fair CLR 32.8 21.1 50% 36 76.07 1011.8
01 13:56 SE 17 16.09 Fair CLR 32.2 21.1 52% 35 76.1 1012.3
01 11:56 Vrbl 7 16.09 Fair CLR 30.6 21.7 59% 34 76.15 1013.1
01 10:56 Vrbl 6 14.48 Fair CLR 28.3 21.7 67% 31 76.15 1013.0
01 09:56 N 15 16.09 Fair CLR 26.7 21.1 71% 28 76.12 1013.0
01 08:56 N 13 16.09 Fair CLR 22.8 20.6 87% 76.15 1013.3
01 07:56 N 9 16.09 Fair CLR 21.7 20.6 94% 76.15 1013.3
01 06:56 N 6 16.09 Fair CLR 21.1 20 23.3 20.6 93% 76.12 1012.9
01 05:56 NW 7 16.09 Fair CLR 21.1 20 93% 76.07 1012.1
01 04:56 E 11 16.09 Fair CLR 21.1 20.6 97% 76.05 1011.6
01 03:56 E 6 16.09 Fair CLR 21.1 20 93% 76.1 1012.2
01 02:56 Calm 16.09 Fair CLR 21.7 20.6 94% 76.1 1012.5
01 01:56 NE 9 16.09 Fair CLR 22.8 20.6 87% 76.1 1012.5
01 00:56 N 9 16.09 Overcast OVC110 23.3 21.1 30.6 23.3 88% 76.15 1013.0
31 23:56 E 9 16.09 Mostly Cloudy BKN100 23.3 21.1 88% 76.17 1013.5
31 22:56 E 6 16.09 Fair CLR 23.9 20.6 82% 24 76.2 1013.9
31 21:56 E 13 16.09 Fair CLR 23.9 20 79% 24 76.17 1013.8
31 20:56 E 11 16.09 Light Rain CLR 24.4 21.1 82% 25 76.1 1012.8
31 19:56 E 9 16.09 Fair CLR 27.8 21.7 69% 30 76.1 1012.6
31 18:56 SE 7 16.09 Fair CLR 30.6 20 31.7 28.9 53% 33 76.1 1012.5
31 17:56 SE 13 16.09 Fair CLR 31.1 19.4 50% 33 76.12 1012.5
31 16:56 SE 11 16.09 Fair CLR 31.1 18.9 48% 32 76.15 1012.9
31 15:56 S 17 16.09 Fair CLR 31.1 19.4 50% 33 76.17 1013.3
31 14:56 S 17 16.09 Fair CLR 30.6 19.4 51% 32 76.2 1013.6
31 13:56 SE 9 16.09 Fair CLR 30 19.4 53% 32 76.23 1013.9
31 12:56 E 9 16.09 Fair CLR 28.9 18.9 28.9 20.6 55% 30 76.25 1014.4
31 11:56 N 7 16.09 Fair CLR 27.8 18.3 56% 29 76.25 1014.3
31 10:56 NW 19 16.09 Fair CLR 26.1 17.8 60% 27 76.15 1013.4
31 09:56 N 17 16.09 Fair CLR 22.8 17.2 71% 76.2 1014.1
31 08:56 N 13 16.09 Fair CLR 21.1 16.7 76% 76.2 1014.1
31 07:56 NW 17 16.09 Fair CLR 20.6 17.2 81% 76.15 1013.4
31 06:56 S 7 16.09 Fair CLR 21.1 18.3 27.2 21.1 84% 76.12 1012.8
31 05:56 SW 17 16.09 Light Rain SCT090 BKN110 23.9 16.7 64% 25 76.23 1013.7
31 04:56 SW 17 16.09 Fair CLR 24.4 16.1 60% 26 76.15 1012.6
31 03:56 S 17 16.09 Mostly Cloudy BKN120 23.3 17.2 69% 76.05 1011.7
31 02:56 SW 13 16.09 Fair CLR 24.4 17.8 67% 25 76 1010.7
31 01:56 SW 15 16.09 Fair CLR 26.1 18.9 65% 27 75.97 1010.5
31 00:56 SW 9 16.09 Fair CLR 26.1 20.6 31.1 22.8 72% 28 75.95 1009.9
30 23:56 S 7 16.09 Fair CLR 23.9 21.7 88% 24 75.9 1009.6
30 22:56 S 9 16.09 Fair CLR 23.9 22.2 90% 23 75.9 1009.6
30 21:56 S 7 16.09 Fair CLR 25 22.2 85% 26 75.92 1010.1
30 20:56 S 7 16.09 Fair CLR 26.1 22.2 79% 28 75.9 1009.8
30 19:56 S 6 16.09 Fair CLR 28.3 22.2 70% 31 75.87 1009.4
30 18:56 S 9 16.09 Fair CLR 31.1 21.7 33.3 30.6 57% 34 75.87 1009.3
30 17:56 S 11 16.09 Fair CLR 32.8 18.9 44% 34 75.84 1008.7
30 16:56 E 9 16.09 Fair CLR 32.8 17.8 41% 34 75.82 1008.5
30 15:56 SE 11 16.09 Fair CLR 32.2 18.3 44% 33 75.82 1008.6
30 14:56 Calm 16.09 Fair CLR 32.2 16.7 39% 32 75.84 1008.7
30 13:56 NW 17 16.09 Fair CLR 30.6 17.8 46% 31 75.84 1008.6
30 12:56 N 17 16.09 Fair CLR 31.1 18.9 31.1 20.6 48% 32 75.82 1008.6
30 11:56 W 15 16.09 Fair CLR 29.4 20 57% 31 75.92 1009.7
30 10:56 W 17 16.09 Fair CLR 28.9 18.9 55% 30 75.9 1009.6
Date Time (cdt) Wind (kph) Vis. (km) Weather Sky Cond. Air Dwpt Max. Min. Relative Humidity Wind Chill (°C) Heat Index (°C) altimeter (cm) sea level (mb) 1 hr 3 hr 6 hr
6 hour
Temperature (ºC) Pressure Precipitation (cm)